createdAt,value
2023-01-08T00:00:07.533Z,60.01
2023-01-08T00:01:35.013Z,58.69
2023-01-08T00:02:36.978Z,58.09
2023-01-08T00:03:40.701Z,58.51
2023-01-08T00:04:43.237Z,59.55
2023-01-08T00:05:45.397Z,60.78
2023-01-08T00:06:48.039Z,61.99
2023-01-08T00:07:49.928Z,63.25
2023-01-08T00:08:52.065Z,64.16
2023-01-08T00:09:55.101Z,63.88
2023-01-08T00:10:58.470Z,62.90
2023-01-08T00:12:00.616Z,61.71
2023-01-08T00:13:02.850Z,60.61
2023-01-08T00:14:05.279Z,59.69
2023-01-08T00:15:07.772Z,58.73
2023-01-08T00:16:12.762Z,58.05
2023-01-08T00:17:19.960Z,58.51
2023-01-08T00:18:23.783Z,59.59
2023-01-08T00:19:25.967Z,60.86
2023-01-08T00:20:29.129Z,62.07
2023-01-08T00:21:31.116Z,63.30
2023-01-08T00:22:33.427Z,64.17
2023-01-08T00:23:36.819Z,63.89
2023-01-08T00:24:38.931Z,62.90
2023-01-08T00:25:41.526Z,61.71
2023-01-08T00:26:43.564Z,60.63
2023-01-08T00:27:46.685Z,59.72
2023-01-08T00:28:48.759Z,58.70
2023-01-08T00:29:50.811Z,57.99
2023-01-08T00:30:53.181Z,58.37
2023-01-08T00:31:55.089Z,59.30
2023-01-08T00:32:57.115Z,60.43
2023-01-08T00:33:59.027Z,61.60
2023-01-08T00:35:01.926Z,62.76
2023-01-08T00:36:12.366Z,63.96
2023-01-08T00:37:19.065Z,64.10
2023-01-08T00:38:24.958Z,63.21
2023-01-08T00:39:27.003Z,61.96
2023-01-08T00:40:28.879Z,60.86
2023-01-08T00:41:30.860Z,59.88
2023-01-08T00:42:32.842Z,58.88
2023-01-08T00:43:35.516Z,58.00
2023-01-08T00:44:37.388Z,58.22
2023-01-08T00:45:39.733Z,59.11
2023-01-08T00:46:41.889Z,60.31
2023-01-08T00:47:44.031Z,61.55
2023-01-08T00:48:45.925Z,62.73
2023-01-08T00:49:48.038Z,63.93
2023-01-08T00:50:51.159Z,64.20
2023-01-08T00:51:53.093Z,63.46
2023-01-08T00:52:55.200Z,62.33
2023-01-08T00:53:57.400Z,61.18
2023-01-08T00:54:59.337Z,60.23
2023-01-08T00:56:07.610Z,59.37
2023-01-08T00:57:09.591Z,58.29
2023-01-08T00:58:12.605Z,58.22
2023-01-08T00:59:14.875Z,59.03
2023-01-08T01:00:17.162Z,60.17
2023-01-08T01:01:21.801Z,61.34
2023-01-08T01:02:24.081Z,62.53
2023-01-08T01:03:26.664Z,63.83
2023-01-08T01:04:28.919Z,64.37
2023-01-08T01:05:30.923Z,63.80
2023-01-08T01:06:33.121Z,62.72
2023-01-08T01:07:35.733Z,61.52
2023-01-08T01:08:38.133Z,60.48
2023-01-08T01:09:40.762Z,59.59
2023-01-08T01:10:42.805Z,58.60
2023-01-08T01:11:44.689Z,58.11
2023-01-08T01:12:46.852Z,58.64
2023-01-08T01:13:49.869Z,59.71
2023-01-08T01:14:52.796Z,60.96
2023-01-08T01:15:59.511Z,62.11
2023-01-08T01:17:01.336Z,63.42
2023-01-08T01:18:03.426Z,64.25
2023-01-08T01:19:05.385Z,63.92
2023-01-08T01:20:10.505Z,62.88
2023-01-08T01:21:26.648Z,61.65
2023-01-08T01:22:28.890Z,60.33
2023-01-08T01:23:30.956Z,59.38
2023-01-08T01:24:33.824Z,58.35
2023-01-08T01:25:39.031Z,58.08
2023-01-08T01:26:41.781Z,58.83
2023-01-08T01:27:43.968Z,59.96
2023-01-08T01:28:54.417Z,61.17
2023-01-08T01:29:56.420Z,62.51
2023-01-08T01:30:58.782Z,63.81
2023-01-08T01:32:03.956Z,64.29
2023-01-08T01:33:05.931Z,63.63
2023-01-08T01:34:07.950Z,62.53
2023-01-08T01:35:10.072Z,61.40
2023-01-08T01:36:14.172Z,60.35
2023-01-08T01:37:17.130Z,59.37
2023-01-08T01:38:19.208Z,58.33
2023-01-08T01:39:21.888Z,58.11
2023-01-08T01:40:23.877Z,58.85
2023-01-08T01:41:38.299Z,60.04
2023-01-08T01:42:40.439Z,61.54
2023-01-08T01:43:44.710Z,62.77
2023-01-08T01:44:47.059Z,64.07
2023-01-08T01:45:49.216Z,64.32
2023-01-08T01:46:51.396Z,63.64
2023-01-08T01:48:04.012Z,62.58
2023-01-08T01:49:22.732Z,61.27
2023-01-08T01:50:40.135Z,60.04
2023-01-08T01:51:51.708Z,58.91
2023-01-08T01:53:02.968Z,58.13
2023-01-08T01:54:11.196Z,58.65
2023-01-08T01:55:14.355Z,59.86
2023-01-08T01:56:16.797Z,61.16
2023-01-08T01:57:22.483Z,62.41
2023-01-08T01:58:28.344Z,63.84
2023-01-08T01:59:31.251Z,64.41
2023-01-08T02:00:35.515Z,63.83
2023-01-08T02:01:38.806Z,62.75
2023-01-08T02:02:40.960Z,61.68
2023-01-08T02:03:43.116Z,60.72
2023-01-08T02:04:45.187Z,59.86
2023-01-08T02:05:58.521Z,59.02
2023-01-08T02:07:14.804Z,58.10
2023-01-08T02:08:44.685Z,58.66
2023-01-08T02:09:54.515Z,60.34
2023-01-08T02:11:10.969Z,61.77
2023-01-08T02:12:25.277Z,63.46
2023-01-08T02:13:31.905Z,64.44
2023-01-08T02:14:47.477Z,63.98
2023-01-08T02:15:56.674Z,62.71
2023-01-08T02:17:06.920Z,61.49
2023-01-08T02:18:38.124Z,60.42
2023-01-08T02:19:40.144Z,59.33
2023-01-08T02:20:57.667Z,58.44
2023-01-08T02:22:41.275Z,58.50
2023-01-08T02:24:20.627Z,60.30
2023-01-08T02:25:34.047Z,62.26
2023-01-08T02:26:37.829Z,63.81
2023-01-08T02:27:45.701Z,64.35
2023-01-08T02:28:56.687Z,63.70
2023-01-08T02:29:59.618Z,62.47
2023-01-08T02:31:02.977Z,61.35
2023-01-08T02:32:05.853Z,60.33
2023-01-08T02:33:07.757Z,59.48
2023-01-08T02:34:11.829Z,58.51
2023-01-08T02:35:14.009Z,58.18
2023-01-08T02:36:30.835Z,58.87
2023-01-08T02:37:33.833Z,60.32
2023-01-08T02:38:41.636Z,61.66
2023-01-08T02:40:16.867Z,63.10
2023-01-08T02:41:29.154Z,64.41
2023-01-08T02:42:38.539Z,63.78
2023-01-08T02:43:52.606Z,62.61
2023-01-08T02:44:57.502Z,61.30
2023-01-08T02:46:02.659Z,60.28
2023-01-08T02:47:10.986Z,59.40
2023-01-08T02:48:16.227Z,58.37
2023-01-08T02:49:23.969Z,58.28
2023-01-08T02:50:35.913Z,59.21
2023-01-08T02:51:49.223Z,60.70
2023-01-08T02:53:09.708Z,62.31
2023-01-08T02:54:19.585Z,64.06
2023-01-08T02:55:26.214Z,64.45
2023-01-08T02:56:37.420Z,63.73
2023-01-08T02:57:40.081Z,62.50
2023-01-08T02:58:46.980Z,61.44
2023-01-08T02:59:51.575Z,60.46
2023-01-08T03:00:55.020Z,59.65
2023-01-08T03:01:57.905Z,58.83
2023-01-08T03:03:14.104Z,58.31
2023-01-08T03:04:20.450Z,59.14
2023-01-08T03:05:28.540Z,60.49
2023-01-08T03:06:32.170Z,62.03
2023-01-08T03:07:35.725Z,63.49
2023-01-08T03:08:46.478Z,64.48
2023-01-08T03:09:48.891Z,64.10
2023-01-08T03:11:04.295Z,63.11
2023-01-08T03:12:18.646Z,61.83
2023-01-08T03:13:45.923Z,60.69
2023-01-08T03:15:01.763Z,59.58
2023-01-08T03:16:11.722Z,58.54
2023-01-08T03:17:29.787Z,58.38
2023-01-08T03:18:39.859Z,59.53
2023-01-08T03:19:52.719Z,60.99
2023-01-08T03:20:55.675Z,62.56
2023-01-08T03:22:01.080Z,63.96
2023-01-08T03:23:09.244Z,64.47
2023-01-08T03:24:15.052Z,63.81
2023-01-08T03:25:22.184Z,62.70
2023-01-08T03:26:27.494Z,61.55
2023-01-08T03:27:38.198Z,60.65
2023-01-08T03:28:50.821Z,59.75
2023-01-08T03:29:57.864Z,58.76
2023-01-08T03:31:02.981Z,58.26
2023-01-08T03:32:14.062Z,58.94
2023-01-08T03:33:20.224Z,60.27
2023-01-08T03:34:27.014Z,61.64
2023-01-08T03:35:32.565Z,63.13
2023-01-08T03:36:38.662Z,64.40
2023-01-08T03:37:46.285Z,64.46
2023-01-08T03:38:59.522Z,63.54
2023-01-08T03:40:07.280Z,62.25
2023-01-08T03:41:18.661Z,61.15
2023-01-08T03:42:22.723Z,60.14
2023-01-08T03:43:25.689Z,59.36
2023-01-08T03:44:28.204Z,58.51
2023-01-08T03:45:33.101Z,58.49
2023-01-08T03:46:44.583Z,59.42
2023-01-08T03:47:48.284Z,60.90
2023-01-08T03:48:51.850Z,62.34
2023-01-08T03:49:58.076Z,63.89
2023-01-08T03:51:00.301Z,64.62
2023-01-08T03:52:02.452Z,64.13
2023-01-08T03:53:04.557Z,63.14
2023-01-08T03:54:13.694Z,62.12
2023-01-08T03:55:15.571Z,61.05
2023-01-08T03:56:17.583Z,60.23
2023-01-08T03:57:20.203Z,59.55
2023-01-08T03:58:22.113Z,58.81
2023-01-08T03:59:24.394Z,58.47
2023-01-08T04:00:26.943Z,59.13
2023-01-08T04:01:29.120Z,60.30
2023-01-08T04:02:31.380Z,61.63
2023-01-08T04:03:33.670Z,63.00
2023-01-08T04:04:36.258Z,64.27
2023-01-08T04:05:38.473Z,64.45
2023-01-08T04:06:41.130Z,63.72
2023-01-08T04:07:43.045Z,62.62
2023-01-08T04:08:47.839Z,61.54
2023-01-08T04:09:49.952Z,60.55
2023-01-08T04:10:52.124Z,59.76
2023-01-08T04:11:54.425Z,58.97
2023-01-08T04:12:56.437Z,58.36
2023-01-08T04:13:58.524Z,58.82
2023-01-08T04:15:00.982Z,59.95
2023-01-08T04:16:02.970Z,61.27
2023-01-08T04:17:05.073Z,62.64
2023-01-08T04:18:06.827Z,64.02
2023-01-08T04:19:11.816Z,64.57
2023-01-08T04:20:13.768Z,64.02
2023-01-08T04:21:15.722Z,63.04
2023-01-08T04:22:17.515Z,62.00
2023-01-08T04:23:19.675Z,61.07
2023-01-08T04:24:21.509Z,60.27
2023-01-08T04:25:23.449Z,59.55
2023-01-08T04:26:25.283Z,58.72
2023-01-08T04:27:27.436Z,58.31
2023-01-08T04:28:29.408Z,58.95
2023-01-08T04:29:31.390Z,60.14
2023-01-08T04:30:33.429Z,61.48
2023-01-08T04:31:35.496Z,62.88
2023-01-08T04:32:37.507Z,64.27
2023-01-08T04:33:39.645Z,64.60
2023-01-08T04:34:41.481Z,63.90
2023-01-08T04:35:43.453Z,62.85
2023-01-08T04:36:45.819Z,61.78
2023-01-08T04:37:47.975Z,60.85
2023-01-08T04:38:49.816Z,60.05
2023-01-08T04:39:51.790Z,59.32
2023-01-08T04:40:58.529Z,58.48
2023-01-08T04:42:00.908Z,58.47
2023-01-08T04:43:02.847Z,59.38
2023-01-08T04:44:05.279Z,60.64
2023-01-08T04:45:08.508Z,61.96
2023-01-08T04:46:11.361Z,63.37
2023-01-08T04:47:13.327Z,64.52
2023-01-08T04:48:15.130Z,64.44
2023-01-08T04:49:17.032Z,63.63
2023-01-08T04:50:19.259Z,62.59
2023-01-08T04:51:22.316Z,61.49
2023-01-08T04:52:24.349Z,60.56
2023-01-08T04:53:26.998Z,59.81
2023-01-08T04:54:28.859Z,59.12
2023-01-08T04:55:30.768Z,58.42
2023-01-08T04:56:32.764Z,58.72
2023-01-08T04:57:34.626Z,59.74
2023-01-08T04:58:38.347Z,61.01
2023-01-08T04:59:40.325Z,62.34
2023-01-08T05:00:42.221Z,63.80
2023-01-08T05:01:44.379Z,64.63
2023-01-08T05:02:47.129Z,64.28
2023-01-08T05:03:54.511Z,63.36
2023-01-08T05:04:56.533Z,62.25
2023-01-08T05:06:00.762Z,61.28
2023-01-08T05:07:04.412Z,60.44
2023-01-08T05:08:06.298Z,59.71
2023-01-08T05:09:08.337Z,58.97
2023-01-08T05:10:10.623Z,58.39
2023-01-08T05:11:12.725Z,58.82
2023-01-08T05:12:14.832Z,59.91
2023-01-08T05:13:16.959Z,61.16
2023-01-08T05:14:18.916Z,62.50
2023-01-08T05:15:21.028Z,63.95
2023-01-08T05:16:23.844Z,64.59
2023-01-08T05:17:26.136Z,64.14
2023-01-08T05:18:29.405Z,63.23
2023-01-08T05:19:31.375Z,62.17
2023-01-08T05:20:33.446Z,61.24
2023-01-08T05:21:35.879Z,60.44
2023-01-08T05:22:37.758Z,59.76
2023-01-08T05:23:40.200Z,59.04
2023-01-08T05:24:42.281Z,58.36
2023-01-08T05:25:44.248Z,58.69
2023-01-08T05:26:46.279Z,59.71
2023-01-08T05:27:48.440Z,60.98
2023-01-08T05:28:50.393Z,62.27
2023-01-08T05:29:52.317Z,63.65
2023-01-08T05:30:54.772Z,64.47
2023-01-08T05:31:56.808Z,64.17
2023-01-08T05:32:58.890Z,63.24
2023-01-08T05:34:01.458Z,62.16
2023-01-08T05:35:03.692Z,61.20
2023-01-08T05:36:11.122Z,60.38
2023-01-08T05:37:13.060Z,59.63
2023-01-08T05:38:15.390Z,58.83
2023-01-08T05:39:17.711Z,58.30
2023-01-08T05:40:20.358Z,58.84
2023-01-08T05:41:22.489Z,60.01
2023-01-08T05:42:24.490Z,61.34
2023-01-08T05:43:27.103Z,62.63
2023-01-08T05:44:29.352Z,64.01
2023-01-08T05:45:32.643Z,64.48
2023-01-08T05:46:34.863Z,63.90
2023-01-08T05:47:37.210Z,62.91
2023-01-08T05:48:39.882Z,61.87
2023-01-08T05:49:42.038Z,60.93
2023-01-08T05:50:44.009Z,60.10
2023-01-08T05:51:46.232Z,59.41
2023-01-08T05:52:48.145Z,58.59
2023-01-08T05:53:50.369Z,58.41
2023-01-08T05:54:52.567Z,59.22
2023-01-08T05:55:59.940Z,60.45
2023-01-08T05:57:01.823Z,61.89
2023-01-08T05:58:06.024Z,63.30
2023-01-08T05:59:08.035Z,64.47
2023-01-08T06:00:11.567Z,64.41
2023-01-08T06:01:18.074Z,63.56
2023-01-08T06:02:20.375Z,62.39
2023-01-08T06:03:23.295Z,61.36
2023-01-08T06:04:25.775Z,60.50
2023-01-08T06:05:28.788Z,59.80
2023-01-08T06:06:30.605Z,59.10
2023-01-08T06:07:32.497Z,58.45
2023-01-08T06:08:35.424Z,58.74
2023-01-08T06:09:37.512Z,59.75
2023-01-08T06:10:39.507Z,61.02
2023-01-08T06:11:41.407Z,62.34
2023-01-08T06:12:43.470Z,63.78
2023-01-08T06:13:45.391Z,64.52
2023-01-08T06:14:47.577Z,64.13
2023-01-08T06:15:49.534Z,63.19
2023-01-08T06:16:51.613Z,62.12
2023-01-08T06:17:53.522Z,61.12
2023-01-08T06:18:55.509Z,60.28
2023-01-08T06:19:57.854Z,59.58
2023-01-08T06:20:59.875Z,58.78
2023-01-08T06:22:01.754Z,58.35
2023-01-08T06:23:03.724Z,58.96
2023-01-08T06:24:06.067Z,60.12
2023-01-08T06:25:08.597Z,61.43
2023-01-08T06:26:10.856Z,62.76
2023-01-08T06:27:12.718Z,64.13
2023-01-08T06:28:14.508Z,64.52
2023-01-08T06:29:16.457Z,63.93
2023-01-08T06:30:18.805Z,62.92
2023-01-08T06:31:21.161Z,61.89
2023-01-08T06:32:23.042Z,60.93
2023-01-08T06:33:25.360Z,60.11
2023-01-08T06:34:27.252Z,59.38
2023-01-08T06:35:29.376Z,58.51
2023-01-08T06:36:31.275Z,58.43
2023-01-08T06:37:33.085Z,59.25
2023-01-08T06:38:35.922Z,60.47
2023-01-08T06:39:37.841Z,61.81
2023-01-08T06:40:39.774Z,63.20
2023-01-08T06:41:43.675Z,64.41
2023-01-08T06:42:46.450Z,64.44
2023-01-08T06:43:48.287Z,63.68
2023-01-08T06:44:50.563Z,62.67
2023-01-08T06:45:55.115Z,61.67
2023-01-08T06:46:57.119Z,60.73
2023-01-08T06:48:03.971Z,59.95
2023-01-08T06:49:08.237Z,59.21
2023-01-08T06:50:10.400Z,58.37
2023-01-08T06:51:12.601Z,58.55
2023-01-08T06:52:14.553Z,59.55
2023-01-08T06:53:17.072Z,60.88
2023-01-08T06:54:19.258Z,62.28
2023-01-08T06:55:23.290Z,63.72
2023-01-08T06:56:25.472Z,64.52
2023-01-08T06:57:27.379Z,64.07
2023-01-08T06:58:30.338Z,63.06
2023-01-08T06:59:32.268Z,61.95
2023-01-08T07:00:34.201Z,60.95
2023-01-08T07:01:36.771Z,60.12
2023-01-08T07:02:39.382Z,59.34
2023-01-08T07:03:42.085Z,58.44
2023-01-08T07:04:44.893Z,58.43
2023-01-08T07:05:47.100Z,59.38
2023-01-08T07:06:49.054Z,60.68
2023-01-08T07:07:51.719Z,62.02
2023-01-08T07:08:53.580Z,63.45
2023-01-08T07:09:55.445Z,64.47
2023-01-08T07:10:57.608Z,64.35
2023-01-08T07:11:59.381Z,63.51
2023-01-08T07:13:01.230Z,62.49
2023-01-08T07:14:03.121Z,61.48
2023-01-08T07:15:05.612Z,60.59
2023-01-08T07:16:09.827Z,59.83
2023-01-08T07:17:11.767Z,59.10
2023-01-08T07:18:13.717Z,58.38
2023-01-08T07:19:15.736Z,58.63
2023-01-08T07:20:17.713Z,59.59
2023-01-08T07:21:21.142Z,60.86
2023-01-08T07:22:24.297Z,62.27
2023-01-08T07:23:26.271Z,63.73
2023-01-08T07:24:28.564Z,64.55
2023-01-08T07:25:31.011Z,64.28
2023-01-08T07:26:33.575Z,63.35
2023-01-08T07:27:35.834Z,62.29
2023-01-08T07:28:37.678Z,61.30
2023-01-08T07:29:39.553Z,60.46
2023-01-08T07:30:41.624Z,59.71
2023-01-08T07:31:44.186Z,58.94
2023-01-08T07:32:46.089Z,58.36
2023-01-08T07:33:48.034Z,58.80
2023-01-08T07:34:49.956Z,59.91
2023-01-08T07:35:56.124Z,61.26
2023-01-08T07:36:58.085Z,62.71
2023-01-08T07:37:59.925Z,64.07
2023-01-08T07:39:02.018Z,64.52
2023-01-08T07:40:04.508Z,63.92
2023-01-08T07:41:06.488Z,62.93
2023-01-08T07:42:08.711Z,61.88
2023-01-08T07:43:12.674Z,60.89
2023-01-08T07:44:14.516Z,60.10
2023-01-08T07:45:16.505Z,59.46
2023-01-08T07:46:19.072Z,58.66
2023-01-08T07:47:20.967Z,58.41
2023-01-08T07:48:23.211Z,59.15
2023-01-08T07:49:25.716Z,60.40
2023-01-08T07:50:28.127Z,61.76
2023-01-08T07:51:30.048Z,63.15
2023-01-08T07:52:31.954Z,64.39
2023-01-08T07:53:34.973Z,64.49
2023-01-08T07:54:36.859Z,63.75
2023-01-08T07:55:38.791Z,62.72
2023-01-08T07:56:40.695Z,61.70
2023-01-08T07:57:42.581Z,60.75
2023-01-08T07:58:44.881Z,59.96
2023-01-08T07:59:46.935Z,59.26
2023-01-08T08:00:48.736Z,58.47
2023-01-08T08:01:50.723Z,58.51
2023-01-08T08:02:53.124Z,59.41
2023-01-08T08:03:55.331Z,60.66
2023-01-08T08:04:57.338Z,62.01
2023-01-08T08:06:01.486Z,63.47
2023-01-08T08:07:03.617Z,64.52
2023-01-08T08:08:10.668Z,64.30
2023-01-08T08:09:12.717Z,63.31
2023-01-08T08:10:14.609Z,62.24
2023-01-08T08:11:16.937Z,61.23
2023-01-08T08:12:19.242Z,60.39
2023-01-08T08:13:21.272Z,59.64
2023-01-08T08:14:23.704Z,58.83
2023-01-08T08:15:25.610Z,58.36
2023-01-08T08:16:27.540Z,58.93
2023-01-08T08:17:29.569Z,60.11
2023-01-08T08:18:31.669Z,61.41
2023-01-08T08:19:33.642Z,62.68
2023-01-08T08:20:37.109Z,63.99
2023-01-08T08:21:39.336Z,64.37
2023-01-08T08:22:41.624Z,63.75
2023-01-08T08:23:43.611Z,62.71
2023-01-08T08:24:45.652Z,61.60
2023-01-08T08:25:47.733Z,60.61
2023-01-08T08:26:51.619Z,59.75
2023-01-08T08:27:58.527Z,58.92
2023-01-08T08:29:00.480Z,58.30
2023-01-08T08:30:02.603Z,58.81
2023-01-08T08:31:04.628Z,59.88
2023-01-08T08:32:06.766Z,61.15
2023-01-08T08:33:09.033Z,62.50
2023-01-08T08:34:10.963Z,64.00
2023-01-08T08:35:12.806Z,64.61
2023-01-08T08:36:15.204Z,64.10
2023-01-08T08:37:17.751Z,63.07
2023-01-08T08:38:20.413Z,61.98
2023-01-08T08:39:23.801Z,60.90
2023-01-08T08:40:27.185Z,60.08
2023-01-08T08:41:29.530Z,59.37
2023-01-08T08:42:31.700Z,58.56
2023-01-08T08:43:33.686Z,58.39
2023-01-08T08:44:35.521Z,59.18
2023-01-08T08:45:38.204Z,60.42
2023-01-08T08:46:40.317Z,61.71
2023-01-08T08:47:42.567Z,63.06
2023-01-08T08:48:46.170Z,64.33
2023-01-08T08:49:48.047Z,64.37
2023-01-08T08:50:50.658Z,63.55
2023-01-08T08:51:53.501Z,62.49
2023-01-08T08:53:00.638Z,61.51
2023-01-08T08:54:03.169Z,60.59
2023-01-08T08:55:06.983Z,59.82
2023-01-08T08:56:09.106Z,59.04
2023-01-08T08:57:12.052Z,58.38
2023-01-08T08:58:14.625Z,58.71
2023-01-08T08:59:16.552Z,59.74
2023-01-08T09:00:18.983Z,61.03
2023-01-08T09:01:21.185Z,62.42
2023-01-08T09:02:23.426Z,63.89
2023-01-08T09:03:25.708Z,64.64
2023-01-08T09:04:33.665Z,64.23
2023-01-08T09:05:37.064Z,63.16
2023-01-08T09:06:38.987Z,62.10
2023-01-08T09:07:40.800Z,61.13
2023-01-08T09:08:43.736Z,60.29
2023-01-08T09:09:45.608Z,59.54
2023-01-08T09:10:47.747Z,58.72
2023-01-08T09:11:50.258Z,58.37
2023-01-08T09:12:53.896Z,59.01
2023-01-08T09:13:55.825Z,60.13
2023-01-08T09:14:57.933Z,61.39
2023-01-08T09:16:01.024Z,62.77
2023-01-08T09:17:02.859Z,64.12
2023-01-08T09:18:05.404Z,64.45
2023-01-08T09:19:07.664Z,63.82
2023-01-08T09:20:10.221Z,62.80
2023-01-08T09:21:12.135Z,61.72
2023-01-08T09:22:13.971Z,60.73
2023-01-08T09:23:15.912Z,59.89
2023-01-08T09:24:18.043Z,59.18
2023-01-08T09:25:20.644Z,58.40
2023-01-08T09:26:22.457Z,58.52
2023-01-08T09:27:24.638Z,59.44
2023-01-08T09:28:26.534Z,60.68
2023-01-08T09:29:28.508Z,61.99
2023-01-08T09:30:30.994Z,63.38
2023-01-08T09:31:34.455Z,64.48
2023-01-08T09:32:37.131Z,64.38
2023-01-08T09:33:39.489Z,63.51
2023-01-08T09:34:41.353Z,62.38
2023-01-08T09:35:44.209Z,61.34
2023-01-08T09:36:46.033Z,60.48
2023-01-08T09:37:51.594Z,59.73
2023-01-08T09:38:53.437Z,58.92
2023-01-08T09:40:02.201Z,58.37
2023-01-08T09:41:17.493Z,58.96
2023-01-08T09:42:24.165Z,60.41
2023-01-08T09:43:31.014Z,61.86
2023-01-08T09:44:40.882Z,63.36
2023-01-08T09:45:49.418Z,64.46
2023-01-08T09:46:55.772Z,64.17
2023-01-08T09:48:07.320Z,63.26
2023-01-08T09:49:21.495Z,62.13
2023-01-08T09:50:29.319Z,60.95
2023-01-08T09:51:35.720Z,60.07
2023-01-08T09:52:39.089Z,59.33
2023-01-08T09:53:43.783Z,58.49
2023-01-08T09:54:45.713Z,58.50
2023-01-08T09:56:10.147Z,59.35
2023-01-08T09:57:19.554Z,61.03
2023-01-08T09:58:24.263Z,62.51
2023-01-08T09:59:26.941Z,63.99
2023-01-08T10:00:33.962Z,64.54
2023-01-08T10:01:41.061Z,64.00
2023-01-08T10:02:44.812Z,62.91
2023-01-08T10:04:00.645Z,61.82
2023-01-08T10:05:04.008Z,60.71
2023-01-08T10:06:14.804Z,59.95
2023-01-08T10:07:25.928Z,59.15
2023-01-08T10:08:27.774Z,58.38
2023-01-08T10:09:32.551Z,58.73
2023-01-08T10:10:37.434Z,59.80
2023-01-08T10:11:44.843Z,61.17
2023-01-08T10:12:49.456Z,62.65
2023-01-08T10:13:57.289Z,64.11
2023-01-08T10:15:12.003Z,64.51
2023-01-08T10:16:27.534Z,63.70
2023-01-08T10:17:54.864Z,62.41
2023-01-08T10:18:58.394Z,60.97
2023-01-08T10:20:00.324Z,60.10
2023-01-08T10:21:02.720Z,59.40
2023-01-08T10:22:15.187Z,58.54
2023-01-08T10:23:21.236Z,58.44
2023-01-08T10:24:35.239Z,59.42
2023-01-08T10:25:48.769Z,60.92
2023-01-08T10:26:50.956Z,62.46
2023-01-08T10:28:02.005Z,63.90
2023-01-08T10:29:14.758Z,64.49
2023-01-08T10:30:42.855Z,63.74
2023-01-08T10:31:58.654Z,62.23
2023-01-08T10:33:14.806Z,60.98
2023-01-08T10:35:06.915Z,59.85
2023-01-08T10:36:14.281Z,58.30
2023-01-08T10:37:22.425Z,58.49
2023-01-08T10:38:32.902Z,59.59
2023-01-08T10:39:36.777Z,61.04
2023-01-08T10:40:47.071Z,62.31
2023-01-08T10:41:50.613Z,63.80
2023-01-08T10:42:56.675Z,64.37
2023-01-08T10:44:03.389Z,63.79
2023-01-08T10:45:21.895Z,62.68
2023-01-08T10:46:29.211Z,61.32
2023-01-08T10:47:36.784Z,60.36
2023-01-08T10:48:53.593Z,59.56
2023-01-08T10:49:58.519Z,58.50
2023-01-08T10:51:14.171Z,58.32
2023-01-08T10:52:36.743Z,59.36
2023-01-08T10:53:41.460Z,61.04
2023-01-08T10:54:43.409Z,62.40
2023-01-08T10:55:45.234Z,63.78
2023-01-08T10:56:47.151Z,64.47
2023-01-08T10:58:02.341Z,64.07
2023-01-08T10:59:04.161Z,62.88
2023-01-08T11:00:08.381Z,61.77
2023-01-08T11:01:16.573Z,60.72
2023-01-08T11:02:40.370Z,59.79
2023-01-08T11:03:43.139Z,58.60
2023-01-08T11:04:51.637Z,58.25
2023-01-08T11:05:53.540Z,59.01
2023-01-08T11:06:59.973Z,60.13
2023-01-08T11:08:07.250Z,61.39
2023-01-08T11:09:34.064Z,62.69
2023-01-08T11:10:37.821Z,64.28
2023-01-08T11:11:39.604Z,64.15
2023-01-08T11:12:42.169Z,63.30
2023-01-08T11:14:16.137Z,62.20
2023-01-08T11:15:18.531Z,60.66
2023-01-08T11:16:20.516Z,59.83
2023-01-08T11:17:27.490Z,59.05
2023-01-08T11:18:30.166Z,58.22
2023-01-08T11:19:34.456Z,58.55
2023-01-08T11:20:38.681Z,59.55
2023-01-08T11:21:40.616Z,60.80
2023-01-08T11:22:42.460Z,61.99
2023-01-08T11:23:44.924Z,63.27
2023-01-08T11:24:49.699Z,64.31
2023-01-08T11:26:21.790Z,64.16
2023-01-08T11:27:37.173Z,62.73
2023-01-08T11:29:06.114Z,61.39
2023-01-08T11:30:15.612Z,60.06
2023-01-08T11:31:52.886Z,59.21
2023-01-08T11:33:16.388Z,58.36
2023-01-08T11:34:26.541Z,59.36
2023-01-08T11:35:36.226Z,60.69
2023-01-08T11:36:59.257Z,62.07
2023-01-08T11:38:03.308Z,63.75
2023-01-08T11:39:08.956Z,64.42
2023-01-08T11:40:16.875Z,63.96
2023-01-08T11:42:03.540Z,62.92
2023-01-08T11:43:17.283Z,61.12
2023-01-08T11:44:48.654Z,60.20
2023-01-08T11:46:28.678Z,59.13
2023-01-08T11:47:46.065Z,58.36
2023-01-08T11:49:03.377Z,59.34
2023-01-08T11:50:28.821Z,60.91
2023-01-08T11:51:30.728Z,62.69
2023-01-08T11:53:10.454Z,64.00
2023-01-08T11:54:37.910Z,64.09
2023-01-08T11:55:47.408Z,62.68
2023-01-08T11:57:18.957Z,61.46
2023-01-08T11:58:45.637Z,60.10
2023-01-08T12:00:11.472Z,58.92
2023-01-08T12:01:53.879Z,58.29
2023-01-08T12:03:01.484Z,59.76
2023-01-08T12:04:34.301Z,61.13
2023-01-08T12:05:47.040Z,63.09
2023-01-08T12:07:14.889Z,64.37
2023-01-08T12:08:45.073Z,63.86
2023-01-08T12:10:01.626Z,62.28
2023-01-08T12:11:11.155Z,60.98
2023-01-08T12:12:49.829Z,60.02
2023-01-08T12:14:10.329Z,58.70
2023-01-08T12:15:41.219Z,58.34
2023-01-08T12:17:12.968Z,59.59
2023-01-08T12:18:24.513Z,61.40
2023-01-08T12:20:03.793Z,62.87
2023-01-08T12:21:43.934Z,64.25
2023-01-08T12:23:11.448Z,63.19
2023-01-08T12:24:55.367Z,61.59
2023-01-08T12:26:10.148Z,59.96
2023-01-08T12:28:00.480Z,58.95
2023-01-08T12:29:25.447Z,58.29
2023-01-08T12:30:52.968Z,59.61
2023-01-08T12:32:12.838Z,61.38
2023-01-08T12:33:58.545Z,63.01
2023-01-08T12:35:19.953Z,64.40
2023-01-08T12:36:41.799Z,63.55
2023-01-08T12:37:54.807Z,62.13
2023-01-08T12:39:05.139Z,60.99
2023-01-08T12:40:12.883Z,59.98
2023-01-08T12:41:19.574Z,59.07
2023-01-08T12:42:28.326Z,58.25
2023-01-08T12:43:43.087Z,58.56
2023-01-08T12:44:47.794Z,59.79
2023-01-08T12:45:56.961Z,61.12
2023-01-08T12:47:04.400Z,62.57
2023-01-08T12:48:20.697Z,64.02
2023-01-08T12:49:35.535Z,64.29
2023-01-08T12:50:44.052Z,63.25
2023-01-08T12:51:51.930Z,62.04
2023-01-08T12:53:14.265Z,60.94
2023-01-08T12:54:49.288Z,59.74
2023-01-08T12:56:13.330Z,58.35
2023-01-08T12:57:41.560Z,58.47
2023-01-08T12:58:46.532Z,59.93
2023-01-08T13:00:08.247Z,61.24
2023-01-08T13:01:47.140Z,62.92
2023-01-08T13:02:59.481Z,64.40
2023-01-08T13:04:05.001Z,63.72
2023-01-08T13:05:31.334Z,62.58
2023-01-08T13:06:33.622Z,61.13
2023-01-08T13:07:49.308Z,60.27
2023-01-08T13:08:55.698Z,59.28
2023-01-08T13:10:03.012Z,58.32
2023-01-08T13:11:06.957Z,58.36
2023-01-08T13:12:15.898Z,59.25
2023-01-08T13:13:34.373Z,60.60
2023-01-08T13:14:49.615Z,62.18
2023-01-08T13:15:51.449Z,63.78
2023-01-08T13:17:16.881Z,64.30
2023-01-08T13:18:21.898Z,63.30
2023-01-08T13:19:29.098Z,62.16
2023-01-08T13:20:32.620Z,61.06
2023-01-08T13:21:38.292Z,60.14
2023-01-08T13:22:41.931Z,59.26
2023-01-08T13:23:44.430Z,58.30
2023-01-08T13:24:46.223Z,58.27
2023-01-08T13:25:57.518Z,59.07
2023-01-08T13:27:28.685Z,60.38
2023-01-08T13:28:45.029Z,62.08
2023-01-08T13:29:49.795Z,63.57
2023-01-08T13:30:55.544Z,64.20
2023-01-08T13:31:57.402Z,63.63
2023-01-08T13:32:59.733Z,62.57
2023-01-08T13:34:01.643Z,61.41
2023-01-08T13:35:25.756Z,60.31
2023-01-08T13:36:29.652Z,59.03
2023-01-08T13:37:31.423Z,58.13
2023-01-08T13:38:33.247Z,58.31
2023-01-08T13:39:39.202Z,59.15
2023-01-08T13:40:44.232Z,60.30
2023-01-08T13:42:04.519Z,61.51
2023-01-08T13:43:12.841Z,63.05
2023-01-08T13:44:29.077Z,64.24
2023-01-08T13:45:32.867Z,63.95
2023-01-08T13:46:38.964Z,62.90
2023-01-08T13:47:46.543Z,61.70
2023-01-08T13:49:08.321Z,60.61
2023-01-08T13:50:21.188Z,59.56
2023-01-08T13:51:38.588Z,58.51
2023-01-08T13:52:45.443Z,58.32
2023-01-08T13:53:47.340Z,59.19
2023-01-08T13:54:49.804Z,60.35
2023-01-08T13:56:00.589Z,61.57
2023-01-08T13:57:07.166Z,62.93
2023-01-08T13:58:19.574Z,64.07
2023-01-08T13:59:39.313Z,63.95
2023-01-08T14:00:41.069Z,62.72
2023-01-08T14:01:52.947Z,61.61
2023-01-08T14:02:55.521Z,60.41
2023-01-08T14:03:58.843Z,59.52
2023-01-08T14:05:03.348Z,58.48
2023-01-08T14:06:20.440Z,58.06
2023-01-08T14:07:24.092Z,58.95
2023-01-08T14:08:27.524Z,60.10
2023-01-08T14:09:29.806Z,61.32
2023-01-08T14:10:33.153Z,62.46
2023-01-08T14:11:46.593Z,63.77
2023-01-08T14:12:50.014Z,64.22
2023-01-08T14:13:52.510Z,63.47
2023-01-08T14:14:59.935Z,62.34
2023-01-08T14:16:05.926Z,61.14
2023-01-08T14:17:16.862Z,60.08
2023-01-08T14:18:19.812Z,59.07